Gracewood, GA

4:16 AM EDT on August 31, 2014 (GMT -0400)
Augusta Regional At Bush | Change Station
CLOSE
Current Station
Airport
Location: Augusta Bush,
Elevation: 148 ft
Nearby Weather Stations

Elev 148 ft 33.36 °N, 81.96 °W | Updated 23 minutes ago

Overcast
Overcast
74 °F
Feels Like 74 °F
N
0
Wind Variable Wind from North

Today
High -- | Low -- °F
--% Chance of Precip.
Yesterday
High -- | Low -- °F
Precip. -- in
7:01 AM 7:54 PM
Waxing Crescent, 29% visible
Pressure 30.13 in
Visibility 10.0 miles
Clouds Overcast 1400 ft
Dew Point 72 °F
Humidity 93%
Rainfall 0.00 in
Snow Depth Not available.
UV 0 out of 12
Pollen 8.90 out of 12
Air Quality Not available.
Flu Activity Not available.
METAR KAGS 310753Z AUTO 00000KT 10SM OVC014 23/22 A3013 RMK AO2 SLP201 T02330222

More Conditions Fewer Conditions

Pressure 30.13 in
Visibility 10.0 miles
Clouds Overcast 1400 ft
Dew Point 72 °F
Humidity 93%
Rainfall 0.00 in
Snow Depth Not available.
UV 0 out of 12
Pollen 8.90 out of 12
Air Quality Not available.
Flu Activity Not available.
METAR KAGS 310753Z AUTO 00000KT 10SM OVC014 23/22 A3013 RMK AO2 SLP201 T02330222

More Conditions Fewer Conditions

10-Day Weather Forecast

Almanac

Astronomy

Aug. 31, 2014 Rise Set
Actual Time 7:01 AM EDT 7:54 PM EDT
Civil Twilight 6:35 AM EDT 8:19 PM EDT
Nautical Twilight 6:05 AM EDT 8:49 PM EDT
Astronomical Twilight 5:35 AM EDT 9:20 PM EDT
Moon 12:28 PM EDT 11:27 PM EDT
Length of Visible Light 13h 43m
Length of Day
12h 53m
Tomorrow will be 1m 58s shorter.
Waxing Crescent, 29% of the Moon is Illuminated
Today
Waxing Crescent
Sep 2
First Quarter
Sep 8
Full
Sep 15
Last Quarter
Sep 24
New

Today's Extremes

State Highs State Lows

Community

WunderPhotos

Upload Photos

1,748,820 photos uploaded!

Nearby

Air Quality

  Air Quality AQ Index Pollutant
Yesterday Good
PM2.5
Yesterday Good
OZONE
Sunday Good
OZONE

Snow Depth

Station Depth Elevation
No new snow has been reported.

Earthquake Activity

City Distance Mag. Time & Date
No recent earthquake activity has been reported nearby.
Minimum magnitude displayed is 2.5.

Coastal Water Temperatures

Place Temperature
No Stations Reporting

Nearby Weather Stations